createdAt,value
2024-03-06T00:02:07.565Z,6.30
2024-03-06T00:04:34.500Z,6.30
2024-03-06T00:07:01.636Z,6.30
2024-03-06T00:09:28.511Z,6.30
2024-03-06T00:11:55.990Z,6.30
2024-03-06T00:14:22.883Z,6.40
2024-03-06T00:16:51.278Z,6.40
2024-03-06T00:19:18.470Z,6.40
2024-03-06T00:21:45.301Z,6.50
2024-03-06T00:24:15.283Z,6.50
2024-03-06T00:26:42.233Z,6.50
2024-03-06T00:29:18.642Z,6.50
2024-03-06T00:31:45.689Z,6.60
2024-03-06T00:34:14.641Z,6.60
2024-03-06T00:36:41.711Z,6.60
2024-03-06T00:39:09.173Z,6.60
2024-03-06T00:41:38.853Z,6.60
2024-03-06T00:44:06.973Z,6.60
2024-03-06T00:46:33.918Z,6.50
2024-03-06T00:49:00.641Z,6.50
2024-03-06T00:51:36.938Z,6.40
2024-03-06T00:54:08.723Z,6.40
2024-03-06T00:56:39.129Z,6.30
2024-03-06T00:59:06.285Z,6.30
2024-03-06T01:01:33.628Z,6.20
2024-03-06T01:04:00.741Z,6.20
2024-03-06T01:06:27.787Z,6.20
2024-03-06T01:08:58.044Z,6.20
2024-03-06T01:11:24.887Z,6.20
2024-03-06T01:13:54.743Z,6.10
2024-03-06T01:16:21.681Z,6.10
2024-03-06T01:18:48.443Z,6.10
2024-03-06T01:21:17.240Z,6.00
2024-03-06T01:23:44.527Z,5.90
2024-03-06T01:26:13.640Z,5.90
2024-03-06T01:28:40.523Z,5.90
2024-03-06T01:31:07.898Z,5.80
2024-03-06T01:33:34.854Z,5.80
2024-03-06T01:36:01.775Z,5.80
2024-03-06T01:38:30.827Z,5.80
2024-03-06T01:40:59.922Z,5.70
2024-03-06T01:43:27.489Z,5.70
2024-03-06T01:45:54.877Z,5.80
2024-03-06T01:48:23.925Z,5.80
2024-03-06T01:50:50.669Z,5.80
2024-03-06T01:53:18.041Z,5.80
2024-03-06T01:55:45.029Z,5.80
2024-03-06T01:58:11.915Z,5.80
2024-03-06T02:00:41.334Z,5.80
2024-03-06T02:03:08.160Z,5.80
2024-03-06T02:05:35.417Z,5.90
2024-03-06T02:08:02.061Z,5.90
2024-03-06T02:10:28.998Z,5.80
2024-03-06T02:12:55.837Z,5.80
2024-03-06T02:15:22.700Z,5.80
2024-03-06T02:17:49.467Z,5.80
2024-03-06T02:20:17.162Z,5.80
2024-03-06T02:22:49.139Z,5.80
2024-03-06T02:25:18.212Z,5.80
2024-03-06T02:27:48.940Z,5.80
2024-03-06T02:30:15.609Z,5.80
2024-03-06T02:32:43.469Z,5.80
2024-03-06T02:35:11.074Z,5.70
2024-03-06T02:37:38.234Z,5.80
2024-03-06T02:40:08.300Z,5.70
2024-03-06T02:42:35.078Z,5.70
2024-03-06T02:45:01.756Z,5.60
2024-03-06T02:47:28.400Z,5.60
2024-03-06T02:49:55.051Z,5.60
2024-03-06T02:52:21.707Z,5.60
2024-03-06T02:54:48.348Z,5.50
2024-03-06T02:57:15.008Z,5.60
2024-03-06T02:59:41.890Z,5.60
2024-03-06T03:02:08.739Z,5.70
2024-03-06T03:04:35.664Z,5.80
2024-03-06T03:07:02.393Z,5.90
2024-03-06T03:09:29.217Z,5.90
2024-03-06T03:11:55.912Z,5.90
2024-03-06T03:14:22.689Z,5.90
2024-03-06T03:16:49.708Z,5.90
2024-03-06T03:19:17.404Z,5.90
2024-03-06T03:21:45.395Z,5.80
2024-03-06T03:24:12.299Z,5.80
2024-03-06T03:26:38.950Z,5.80
2024-03-06T03:29:06.422Z,5.70
2024-03-06T03:31:34.448Z,5.70
2024-03-06T03:34:01.147Z,5.70
2024-03-06T03:36:27.794Z,5.60
2024-03-06T03:38:55.182Z,5.70
2024-03-06T03:41:24.380Z,5.70
2024-03-06T03:43:51.064Z,5.70
2024-03-06T03:46:20.759Z,5.80
2024-03-06T03:48:49.879Z,5.80
2024-03-06T03:51:17.488Z,5.80
2024-03-06T03:53:44.308Z,5.80
2024-03-06T03:56:11.066Z,5.80
2024-03-06T03:58:38.716Z,5.80
2024-03-06T04:01:07.603Z,5.80
2024-03-06T04:03:34.367Z,5.90
2024-03-06T04:06:01.031Z,5.80
2024-03-06T04:08:27.609Z,5.80
2024-03-06T04:10:54.451Z,5.80
2024-03-06T04:13:22.231Z,5.80
2024-03-06T04:15:48.901Z,5.70
2024-03-06T04:18:15.705Z,5.70
2024-03-06T04:20:42.415Z,5.70
2024-03-06T04:23:09.194Z,5.70
2024-03-06T04:25:35.955Z,5.70
2024-03-06T04:28:03.628Z,5.70
2024-03-06T04:30:30.327Z,5.60
2024-03-06T04:32:56.984Z,5.60
2024-03-06T04:35:26.151Z,5.60
2024-03-06T04:37:52.832Z,5.50
2024-03-06T04:40:22.847Z,5.50
2024-03-06T04:42:49.673Z,5.40
2024-03-06T04:45:19.686Z,5.40
2024-03-06T04:47:46.430Z,5.40
2024-03-06T04:50:15.553Z,5.40
2024-03-06T04:52:42.749Z,5.40
2024-03-06T04:55:11.263Z,5.40
2024-03-06T04:57:42.076Z,5.40
2024-03-06T05:00:11.518Z,5.40
2024-03-06T06:00:31.994Z,5.10
2024-03-06T06:02:58.666Z,5.10
2024-03-06T06:05:27.732Z,5.20
2024-03-06T06:07:54.505Z,5.30
2024-03-06T06:10:23.721Z,5.30
2024-03-06T06:12:50.703Z,5.30
2024-03-06T06:15:17.814Z,5.30
2024-03-06T06:17:45.982Z,5.30
2024-03-06T06:20:16.589Z,5.40
2024-03-06T06:22:44.003Z,5.40
2024-03-06T06:25:11.533Z,5.40
2024-03-06T06:27:39.274Z,5.50
2024-03-06T06:30:07.629Z,5.50
2024-03-06T06:32:35.427Z,5.60
2024-03-06T06:35:04.648Z,5.60
2024-03-06T06:37:31.352Z,5.70
2024-03-06T06:39:58.006Z,5.70
2024-03-06T06:42:25.877Z,5.70
2024-03-06T06:44:52.572Z,5.70
2024-03-06T06:47:19.300Z,5.80
2024-03-06T06:49:46.024Z,5.80
2024-03-06T06:52:12.722Z,5.80
2024-03-06T06:54:39.645Z,5.80
2024-03-06T06:57:06.339Z,5.80
2024-03-06T06:59:33.049Z,5.70
2024-03-06T07:01:59.786Z,5.70
2024-03-06T07:04:26.408Z,5.70
2024-03-06T07:06:57.982Z,5.70
2024-03-06T07:09:24.671Z,5.70
2024-03-06T07:11:51.919Z,5.70
2024-03-06T07:14:18.672Z,5.70
2024-03-06T07:16:48.526Z,5.80
2024-03-06T07:19:15.197Z,5.80
2024-03-06T07:21:41.946Z,5.90
2024-03-06T07:24:08.611Z,5.90
2024-03-06T07:26:36.401Z,6.00
2024-03-06T07:29:03.797Z,6.00
2024-03-06T07:31:30.947Z,6.10
2024-03-06T07:33:57.657Z,6.10
2024-03-06T07:36:24.599Z,6.20
2024-03-06T07:38:51.427Z,6.20
2024-03-06T07:41:20.285Z,6.20
2024-03-06T07:43:46.922Z,6.30
2024-03-06T07:46:14.186Z,6.40
2024-03-06T07:48:45.295Z,6.40
2024-03-06T07:51:12.079Z,6.40
2024-03-06T07:53:38.818Z,6.40
2024-03-06T07:56:05.612Z,6.50
2024-03-06T07:58:35.127Z,6.50
2024-03-06T08:01:01.902Z,6.60
2024-03-06T08:03:28.791Z,6.60
2024-03-06T08:05:55.575Z,6.60
2024-03-06T08:08:22.530Z,6.60
2024-03-06T08:10:49.516Z,6.70
2024-03-06T08:13:16.676Z,6.70
2024-03-06T08:15:46.334Z,6.70
2024-03-06T08:18:14.250Z,6.80
2024-03-06T08:20:41.578Z,6.70
2024-03-06T08:23:08.656Z,6.80
2024-03-06T08:25:37.845Z,6.80
2024-03-06T08:28:04.978Z,6.80
2024-03-06T08:30:31.772Z,6.90
2024-03-06T08:32:58.937Z,6.90
2024-03-06T08:35:25.905Z,6.90
2024-03-06T08:37:52.605Z,6.90
2024-03-06T08:40:19.360Z,7.00
2024-03-06T08:42:46.345Z,7.00
2024-03-06T08:45:13.092Z,7.10
2024-03-06T08:47:40.142Z,7.10
2024-03-06T08:50:08.886Z,7.20
2024-03-06T08:52:38.692Z,7.20
2024-03-06T08:55:05.591Z,7.30
2024-03-06T08:57:32.511Z,7.40
2024-03-06T08:59:59.672Z,7.50
2024-03-06T09:02:26.726Z,7.50
2024-03-06T09:04:53.807Z,7.60
2024-03-06T09:07:20.980Z,7.70
2024-03-06T09:09:47.728Z,7.80
2024-03-06T09:12:15.824Z,7.90
2024-03-06T09:14:42.960Z,8.00
2024-03-06T09:17:16.422Z,8.20
2024-03-06T09:19:55.162Z,8.40
2024-03-06T09:22:32.836Z,8.60
2024-03-06T09:25:01.717Z,8.80
2024-03-06T09:27:28.455Z,9.00
2024-03-06T09:29:55.121Z,9.20
2024-03-06T09:32:23.602Z,9.40
2024-03-06T09:34:50.682Z,9.50
2024-03-06T09:37:17.349Z,9.70
2024-03-06T09:39:44.057Z,9.70
2024-03-06T09:42:13.209Z,9.80
2024-03-06T09:44:42.906Z,9.80
2024-03-06T09:47:14.539Z,9.90
2024-03-06T09:49:41.511Z,10.00
2024-03-06T09:52:08.351Z,10.20
2024-03-06T09:54:35.052Z,10.40
2024-03-06T09:57:02.664Z,10.60
2024-03-06T09:59:29.587Z,10.80
2024-03-06T10:01:56.292Z,10.90
2024-03-06T10:04:23.907Z,11.10
2024-03-06T10:06:50.831Z,11.10
2024-03-06T10:09:17.987Z,11.30
2024-03-06T10:11:44.678Z,11.40
2024-03-06T10:14:12.048Z,11.50
2024-03-06T10:16:41.879Z,11.50
2024-03-06T10:19:20.698Z,11.50
2024-03-06T10:21:52.036Z,11.70
2024-03-06T10:24:22.467Z,11.90
2024-03-06T10:26:49.248Z,12.20
2024-03-06T10:29:19.727Z,12.40
2024-03-06T10:31:53.190Z,12.60
2024-03-06T10:34:21.398Z,12.60
2024-03-06T10:36:56.752Z,12.60
2024-03-06T10:39:23.787Z,12.90
2024-03-06T10:41:52.903Z,13.10
2024-03-06T10:44:21.694Z,13.30
2024-03-06T10:46:54.412Z,13.80
2024-03-06T10:49:21.078Z,14.20
2024-03-06T10:51:48.350Z,14.40
2024-03-06T10:54:19.621Z,14.60
2024-03-06T10:56:49.017Z,14.70
2024-03-06T10:59:17.051Z,14.70
2024-03-06T11:01:45.784Z,14.70
2024-03-06T11:04:12.741Z,14.60
2024-03-06T11:06:39.799Z,14.60
2024-03-06T11:09:07.571Z,14.30
2024-03-06T11:11:34.301Z,14.20
2024-03-06T11:14:01.854Z,14.10
2024-03-06T11:16:30.366Z,13.90
2024-03-06T11:19:10.158Z,13.80
2024-03-06T11:21:49.609Z,13.60
2024-03-06T11:24:20.978Z,13.50
2024-03-06T11:27:33.431Z,13.40
2024-03-06T11:30:17.457Z,13.10
2024-03-06T11:33:00.249Z,12.90
2024-03-06T11:35:28.698Z,12.80
2024-03-06T11:37:55.965Z,12.70
2024-03-06T11:40:25.886Z,12.50
2024-03-06T11:42:55.158Z,12.30
2024-03-06T11:45:23.577Z,12.30
2024-03-06T11:48:20.656Z,12.20
2024-03-06T11:50:52.000Z,12.20
2024-03-06T11:53:21.857Z,12.00
2024-03-06T11:55:48.543Z,11.90
2024-03-06T11:58:17.438Z,11.90
2024-03-06T12:00:46.767Z,11.90
2024-03-06T12:03:15.623Z,11.90
2024-03-06T12:05:45.446Z,11.80
2024-03-06T12:08:12.660Z,11.80
2024-03-06T12:10:40.162Z,11.80
2024-03-06T12:13:06.773Z,11.80
2024-03-06T12:15:36.918Z,11.80
2024-03-06T12:18:03.907Z,11.80
2024-03-06T12:20:30.620Z,11.90
2024-03-06T12:23:00.884Z,11.70
2024-03-06T12:25:27.852Z,11.50
2024-03-06T12:27:55.541Z,11.40
2024-03-06T12:30:23.679Z,11.40
2024-03-06T12:32:59.823Z,11.40
2024-03-06T12:35:27.527Z,11.50
2024-03-06T12:37:54.467Z,11.50
2024-03-06T12:40:23.954Z,11.50
2024-03-06T12:42:53.375Z,11.50
2024-03-06T12:45:22.429Z,11.60
2024-03-06T12:47:49.786Z,11.60
2024-03-06T12:50:17.267Z,11.50
2024-03-06T12:52:47.027Z,11.50
2024-03-06T12:55:14.965Z,11.40
2024-03-06T12:57:41.935Z,11.30
2024-03-06T13:00:17.219Z,11.30
2024-03-06T13:02:45.465Z,11.20
2024-03-06T13:05:12.555Z,11.10
2024-03-06T13:07:39.377Z,11.10
2024-03-06T13:10:06.507Z,11.10
2024-03-06T13:12:33.302Z,11.10
2024-03-06T13:15:02.487Z,11.10
2024-03-06T13:17:30.901Z,11.10
2024-03-06T13:19:57.621Z,11.10
2024-03-06T13:22:24.255Z,11.00
2024-03-06T13:24:52.250Z,11.00
2024-03-06T13:27:19.004Z,10.90
2024-03-06T13:29:45.792Z,10.80
2024-03-06T13:32:15.178Z,10.70
2024-03-06T13:34:41.886Z,10.60
2024-03-06T13:37:11.595Z,10.60
2024-03-06T13:39:40.247Z,10.60
2024-03-06T13:42:07.749Z,10.60
2024-03-06T13:44:34.723Z,10.60
2024-03-06T13:47:01.610Z,10.50
2024-03-06T13:49:41.592Z,10.50
2024-03-06T13:52:11.477Z,10.40
2024-03-06T13:54:39.159Z,10.40
2024-03-06T13:57:06.911Z,10.40
2024-03-06T13:59:34.979Z,10.40
2024-03-06T14:02:02.550Z,10.40
2024-03-06T14:04:29.822Z,10.40
2024-03-06T14:06:58.420Z,10.30
2024-03-06T14:09:26.430Z,10.30
2024-03-06T14:11:54.259Z,10.30
2024-03-06T14:14:21.717Z,10.30
2024-03-06T14:16:48.922Z,10.30
2024-03-06T14:19:15.684Z,10.20
2024-03-06T14:21:42.425Z,10.20
2024-03-06T14:24:10.219Z,10.20
2024-03-06T14:26:37.173Z,10.10
2024-03-06T14:29:07.176Z,10.20
2024-03-06T14:31:34.165Z,10.10
2024-03-06T14:34:04.295Z,10.20
2024-03-06T14:36:33.517Z,10.20
2024-03-06T14:39:00.224Z,10.20
2024-03-06T14:41:27.086Z,10.20
2024-03-06T14:43:54.979Z,10.20
2024-03-06T14:46:21.920Z,10.20
2024-03-06T14:48:48.597Z,10.30
2024-03-06T14:51:17.761Z,10.30
2024-03-06T14:53:47.125Z,10.20
2024-03-06T14:56:13.920Z,10.30
2024-03-06T14:58:40.877Z,10.30
2024-03-06T15:01:07.682Z,10.30
2024-03-06T15:03:36.791Z,10.30
2024-03-06T15:06:03.906Z,10.30
2024-03-06T15:08:30.688Z,10.30
2024-03-06T15:10:59.653Z,10.40
2024-03-06T15:13:26.598Z,10.40
2024-03-06T15:15:53.300Z,10.40
2024-03-06T15:18:20.308Z,10.40
2024-03-06T15:20:47.310Z,10.40
2024-03-06T15:23:14.132Z,10.40
2024-03-06T15:25:40.795Z,10.40
2024-03-06T15:28:07.588Z,10.40
2024-03-06T15:30:36.504Z,10.40
2024-03-06T15:33:04.508Z,10.40
2024-03-06T15:35:31.695Z,10.40
2024-03-06T15:37:58.476Z,10.40
2024-03-06T15:40:26.185Z,10.40
2024-03-06T15:42:56.313Z,10.40
2024-03-06T15:45:24.669Z,10.40
2024-03-06T15:47:51.900Z,10.40
2024-03-06T15:50:19.161Z,10.40
2024-03-06T15:52:48.051Z,10.40
2024-03-06T15:55:14.983Z,10.40
2024-03-06T15:57:41.776Z,10.30
2024-03-06T16:00:11.670Z,10.30
2024-03-06T16:02:38.342Z,10.30
2024-03-06T16:05:05.885Z,10.30
2024-03-06T16:07:34.610Z,10.30
2024-03-06T16:10:06.616Z,10.40
2024-03-06T16:12:35.866Z,10.40
2024-03-06T16:15:07.938Z,10.40
2024-03-06T16:17:35.894Z,10.40
2024-03-06T16:20:06.347Z,10.50
2024-03-06T16:22:33.433Z,10.50
2024-03-06T16:25:00.202Z,10.50
2024-03-06T16:27:26.926Z,10.50
2024-03-06T16:29:53.600Z,10.50
2024-03-06T16:32:20.654Z,10.40
2024-03-06T16:34:47.313Z,10.40
2024-03-06T16:37:16.452Z,10.40
2024-03-06T16:39:43.221Z,10.40
2024-03-06T16:42:09.980Z,10.40
2024-03-06T16:44:37.758Z,10.30
2024-03-06T16:47:04.578Z,10.30
2024-03-06T16:49:31.505Z,10.20
2024-03-06T16:52:00.646Z,10.00
2024-03-06T16:54:30.403Z,9.90
2024-03-06T16:56:59.429Z,9.80
2024-03-06T16:59:28.282Z,9.80
2024-03-06T17:01:57.387Z,9.70
2024-03-06T17:04:24.296Z,9.70
2024-03-06T17:06:51.022Z,9.60
2024-03-06T17:09:17.753Z,9.60
2024-03-06T17:11:45.006Z,9.50
2024-03-06T17:14:12.100Z,9.40
2024-03-06T17:16:38.793Z,9.40
2024-03-06T17:19:07.038Z,9.40
2024-03-06T17:21:37.823Z,9.30
2024-03-06T17:24:05.857Z,9.40
2024-03-06T17:26:33.290Z,9.30
2024-03-06T17:29:00.894Z,9.30
2024-03-06T17:31:27.565Z,9.30
2024-03-06T17:33:54.198Z,9.30
2024-03-06T17:36:23.031Z,9.20
2024-03-06T17:38:49.847Z,9.30
2024-03-06T17:41:18.557Z,9.30
2024-03-06T17:43:45.981Z,9.30
2024-03-06T17:46:13.217Z,9.20
2024-03-06T17:48:42.755Z,9.20
2024-03-06T17:51:09.550Z,9.10
2024-03-06T17:53:36.266Z,9.10
2024-03-06T17:56:04.125Z,9.00
2024-03-06T17:58:31.557Z,9.00
2024-03-06T18:01:00.088Z,8.90
2024-03-06T18:03:29.469Z,8.90
2024-03-06T18:05:59.980Z,8.90
2024-03-06T18:08:28.082Z,8.90
2024-03-06T18:10:54.885Z,8.80
2024-03-06T18:13:21.608Z,8.80
2024-03-06T18:15:48.370Z,8.80
2024-03-06T18:18:15.154Z,8.70
2024-03-06T18:20:46.927Z,8.70
2024-03-06T18:23:14.174Z,8.70
2024-03-06T18:25:41.145Z,8.70
2024-03-06T18:28:10.143Z,8.70
2024-03-06T18:30:36.842Z,8.60
2024-03-06T18:33:03.743Z,8.70
2024-03-06T18:35:30.567Z,8.60
2024-03-06T18:37:59.974Z,8.60
2024-03-06T18:40:28.241Z,8.60
2024-03-06T18:42:55.023Z,8.50
2024-03-06T18:45:21.769Z,8.50
2024-03-06T18:47:48.641Z,8.50
2024-03-06T18:50:16.728Z,8.50
2024-03-06T18:52:43.541Z,8.60
2024-03-06T18:55:11.601Z,8.60
2024-03-06T18:57:39.415Z,8.50
2024-03-06T19:00:06.766Z,8.60
2024-03-06T19:02:33.647Z,8.50
2024-03-06T19:05:00.514Z,8.50
2024-03-06T19:07:29.471Z,8.50
2024-03-06T19:09:56.833Z,8.50
2024-03-06T19:12:23.683Z,8.50
2024-03-06T19:14:50.458Z,8.50
2024-03-06T19:17:17.548Z,8.40
2024-03-06T19:19:44.349Z,8.40
2024-03-06T19:22:11.056Z,8.40
2024-03-06T19:24:40.853Z,8.40
2024-03-06T19:27:09.978Z,8.40
2024-03-06T19:29:36.800Z,8.40
2024-03-06T19:32:04.791Z,8.40
2024-03-06T19:34:32.254Z,8.30
2024-03-06T19:37:00.759Z,8.30
2024-03-06T19:39:27.520Z,8.30
2024-03-06T19:41:54.509Z,8.30
2024-03-06T19:44:21.641Z,8.30
2024-03-06T19:46:49.334Z,8.30
2024-03-06T19:49:16.178Z,8.30
2024-03-06T19:51:44.138Z,8.30
2024-03-06T19:54:10.876Z,8.40
2024-03-06T19:56:37.753Z,8.40
2024-03-06T19:59:05.318Z,8.40
2024-03-06T20:01:32.237Z,8.40
2024-03-06T20:03:59.151Z,8.40
2024-03-06T20:06:28.025Z,8.40
2024-03-06T20:08:55.339Z,8.50
2024-03-06T20:11:22.318Z,8.50
2024-03-06T20:13:51.546Z,8.50
2024-03-06T20:16:18.536Z,8.50
2024-03-06T20:18:47.580Z,8.60
2024-03-06T20:21:14.712Z,8.60
2024-03-06T20:23:41.454Z,8.60
2024-03-06T20:26:09.235Z,8.60
2024-03-06T20:28:38.480Z,8.60
2024-03-06T20:31:06.304Z,8.60
2024-03-06T20:33:33.068Z,8.60
2024-03-06T20:36:00.056Z,8.60
2024-03-06T20:38:27.036Z,8.60
2024-03-06T20:40:53.792Z,8.60
2024-03-06T20:43:22.611Z,8.60
2024-03-06T20:45:52.633Z,8.60
2024-03-06T20:48:22.299Z,8.60
2024-03-06T20:50:51.866Z,8.60
2024-03-06T20:53:18.767Z,8.60
2024-03-06T20:55:48.676Z,8.60
2024-03-06T20:58:15.528Z,8.60
2024-03-06T21:00:42.294Z,8.60
2024-03-06T21:03:09.605Z,8.60
2024-03-06T21:05:36.428Z,8.60
2024-03-06T21:08:03.319Z,8.50
2024-03-06T21:10:30.196Z,8.50
2024-03-06T21:12:56.979Z,8.50
2024-03-06T21:15:25.586Z,8.50
2024-03-06T21:17:54.742Z,8.50
2024-03-06T21:20:22.539Z,8.50
2024-03-06T21:22:50.126Z,8.50
2024-03-06T21:25:16.884Z,8.40
2024-03-06T21:27:43.790Z,8.40
2024-03-06T21:30:11.433Z,8.40
2024-03-06T21:32:39.114Z,8.50
2024-03-06T21:35:06.059Z,8.40
2024-03-06T21:37:33.406Z,8.40
2024-03-06T21:40:00.560Z,8.50
2024-03-06T21:42:27.384Z,8.40
2024-03-06T21:44:54.278Z,8.40
2024-03-06T21:47:22.450Z,8.40
2024-03-06T21:49:50.291Z,8.40
2024-03-06T21:52:17.190Z,8.40
2024-03-06T21:54:43.991Z,8.40
2024-03-06T21:57:13.917Z,8.40
2024-03-06T21:59:40.834Z,8.40
2024-03-06T22:02:08.269Z,8.40
2024-03-06T22:04:35.157Z,8.40
2024-03-06T22:07:01.883Z,8.40
2024-03-06T22:09:28.607Z,8.40
2024-03-06T22:11:55.292Z,8.40
2024-03-06T22:14:24.264Z,8.40
2024-03-06T22:16:50.987Z,8.40
2024-03-06T22:19:19.809Z,8.40
2024-03-06T22:21:46.581Z,8.40
2024-03-06T22:24:13.225Z,8.40
2024-03-06T22:26:40.029Z,8.40
2024-03-06T22:29:11.176Z,8.40
2024-03-06T22:31:38.539Z,8.40
2024-03-06T22:34:06.225Z,8.40
2024-03-06T22:36:32.860Z,8.40
2024-03-06T22:39:03.106Z,8.40
2024-03-06T22:41:30.149Z,8.40
2024-03-06T22:43:56.973Z,8.40
2024-03-06T22:46:24.080Z,8.40
2024-03-06T22:48:51.543Z,8.40
2024-03-06T22:51:20.719Z,8.40
2024-03-06T22:53:49.858Z,8.40
2024-03-06T22:56:17.928Z,8.40
2024-03-06T22:58:44.656Z,8.40
2024-03-06T23:01:12.037Z,8.40
2024-03-06T23:03:38.740Z,8.40
2024-03-06T23:06:05.667Z,8.40
2024-03-06T23:08:32.512Z,8.40
2024-03-06T23:10:59.639Z,8.40
2024-03-06T23:13:28.331Z,8.30
2024-03-06T23:15:55.051Z,8.40
2024-03-06T23:18:22.186Z,8.30
2024-03-06T23:20:49.837Z,8.30
2024-03-06T23:23:16.839Z,8.30
2024-03-06T23:25:43.648Z,8.30
2024-03-06T23:28:11.834Z,8.30
2024-03-06T23:30:38.581Z,8.20
2024-03-06T23:33:06.599Z,8.20
2024-03-06T23:35:33.460Z,8.20
2024-03-06T23:38:02.613Z,8.20
2024-03-06T23:40:31.766Z,8.20
2024-03-06T23:42:58.581Z,8.20
2024-03-06T23:45:27.408Z,8.10
2024-03-06T23:47:54.292Z,8.10
2024-03-06T23:50:22.048Z,8.10
2024-03-06T23:52:51.284Z,8.00
2024-03-06T23:55:18.233Z,8.10
2024-03-06T23:57:44.865Z,8.00
